sensor_id;sensor_type;location;lat;lon;timestamp;pressure;altitude;pressure_sealevel;temperature;humidity
19236;BME280;9752;54.270;12.470;2023-02-17T00:04:00;102066.75;;;6.22;100.00
19236;BME280;9752;54.270;12.470;2023-02-17T00:09:03;102056.28;;;6.29;100.00
19236;BME280;9752;54.270;12.470;2023-02-17T00:14:05;102058.84;;;6.38;100.00
19236;BME280;9752;54.270;12.470;2023-02-17T00:19:09;102054.44;;;6.37;100.00
19236;BME280;9752;54.270;12.470;2023-02-17T00:24:27;102041.88;;;6.40;100.00
19236;BME280;9752;54.270;12.470;2023-02-17T00:29:29;102040.34;;;6.33;100.00
19236;BME280;9752;54.270;12.470;2023-02-17T00:34:32;102042.19;;;6.34;100.00
19236;BME280;9752;54.270;12.470;2023-02-17T00:39:35;102051.59;;;6.34;100.00
19236;BME280;9752;54.270;12.470;2023-02-17T00:44:37;102044.13;;;6.37;100.00
19236;BME280;9752;54.270;12.470;2023-02-17T00:49:39;102037.31;;;6.37;100.00
19236;BME280;9752;54.270;12.470;2023-02-17T00:54:42;102038.25;;;6.38;100.00
19236;BME280;9752;54.270;12.470;2023-02-17T00:59:43;102022.16;;;6.32;100.00
19236;BME280;9752;54.270;12.470;2023-02-17T01:04:45;102024.63;;;6.30;100.00
19236;BME280;9752;54.270;12.470;2023-02-17T01:09:50;102018.84;;;6.33;100.00
19236;BME280;9752;54.270;12.470;2023-02-17T01:14:51;102017.00;;;6.32;100.00
19236;BME280;9752;54.270;12.470;2023-02-17T01:19:53;102012.00;;;6.33;100.00
19236;BME280;9752;54.270;12.470;2023-02-17T01:24:56;102004.59;;;6.36;100.00
19236;BME280;9752;54.270;12.470;2023-02-17T01:30:02;101997.31;;;6.32;100.00
19236;BME280;9752;54.270;12.470;2023-02-17T01:35:05;102005.50;;;6.37;100.00
19236;BME280;9752;54.270;12.470;2023-02-17T01:40:12;102003.06;;;6.38;100.00
19236;BME280;9752;54.270;12.470;2023-02-17T01:45:36;102017.31;;;6.43;100.00
19236;BME280;9752;54.270;12.470;2023-02-17T01:50:43;102013.06;;;6.44;100.00
19236;BME280;9752;54.270;12.470;2023-02-17T01:55:48;102006.84;;;6.42;100.00
19236;BME280;9752;54.270;12.470;2023-02-17T02:00:51;101993.97;;;6.42;100.00
19236;BME280;9752;54.270;12.470;2023-02-17T02:05:55;101988.66;;;6.40;100.00
19236;BME280;9752;54.270;12.470;2023-02-17T02:10:58;101984.88;;;6.37;100.00
19236;BME280;9752;54.270;12.470;2023-02-17T02:16:09;101966.84;;;6.37;100.00
19236;BME280;9752;54.270;12.470;2023-02-17T02:21:39;101950.00;;;6.32;100.00
19236;BME280;9752;54.270;12.470;2023-02-17T02:32:38;101938.22;;;6.34;100.00
19236;BME280;9752;54.270;12.470;2023-02-17T02:37:46;101934.72;;;6.33;100.00
19236;BME280;9752;54.270;12.470;2023-02-17T02:42:51;101920.44;;;6.37;100.00
19236;BME280;9752;54.270;12.470;2023-02-17T02:47:55;101907.56;;;6.37;100.00
19236;BME280;9752;54.270;12.470;2023-02-17T02:53:15;101915.59;;;6.40;100.00
19236;BME280;9752;54.270;12.470;2023-02-17T02:58:28;101890.88;;;6.42;100.00
19236;BME280;9752;54.270;12.470;2023-02-17T03:03:39;101893.59;;;6.43;100.00
19236;BME280;9752;54.270;12.470;2023-02-17T03:08:46;101892.22;;;6.47;100.00
19236;BME280;9752;54.270;12.470;2023-02-17T03:13:49;101895.06;;;6.50;100.00
19236;BME280;9752;54.270;12.470;2023-02-17T03:18:52;101888.38;;;6.52;100.00
19236;BME280;9752;54.270;12.470;2023-02-17T03:23:55;101882.63;;;6.55;100.00
19236;BME280;9752;54.270;12.470;2023-02-17T03:28:57;101887.47;;;6.60;100.00
19236;BME280;9752;54.270;12.470;2023-02-17T03:34:00;101871.50;;;6.64;100.00
19236;BME280;9752;54.270;12.470;2023-02-17T03:39:02;101871.91;;;6.69;100.00
19236;BME280;9752;54.270;12.470;2023-02-17T03:44:04;101866.03;;;6.70;100.00
19236;BME280;9752;54.270;12.470;2023-02-17T03:49:07;101866.44;;;6.75;100.00
19236;BME280;9752;54.270;12.470;2023-02-17T03:54:08;101872.16;;;6.81;100.00
19236;BME280;9752;54.270;12.470;2023-02-17T03:59:10;101885.47;;;6.86;100.00
19236;BME280;9752;54.270;12.470;2023-02-17T04:04:13;101880.72;;;6.90;100.00
19236;BME280;9752;54.270;12.470;2023-02-17T04:09:15;101878.16;;;6.90;100.00
19236;BME280;9752;54.270;12.470;2023-02-17T04:14:17;101886.47;;;6.96;100.00
19236;BME280;9752;54.270;12.470;2023-02-17T04:19:20;101877.22;;;6.98;100.00
19236;BME280;9752;54.270;12.470;2023-02-17T04:24:21;101865.34;;;7.00;100.00
19236;BME280;9752;54.270;12.470;2023-02-17T04:29:23;101852.72;;;7.03;100.00
19236;BME280;9752;54.270;12.470;2023-02-17T04:34:26;101874.53;;;7.07;100.00
19236;BME280;9752;54.270;12.470;2023-02-17T04:39:28;101866.19;;;7.10;100.00
19236;BME280;9752;54.270;12.470;2023-02-17T04:44:30;101860.13;;;7.09;100.00
19236;BME280;9752;54.270;12.470;2023-02-17T04:49:33;101850.38;;;7.15;100.00
19236;BME280;9752;54.270;12.470;2023-02-17T04:54:34;101839.00;;;7.13;100.00
19236;BME280;9752;54.270;12.470;2023-02-17T04:59:36;101837.34;;;7.14;100.00
19236;BME280;9752;54.270;12.470;2023-02-17T05:04:39;101837.53;;;7.26;100.00
19236;BME280;9752;54.270;12.470;2023-02-17T05:09:41;101833.69;;;7.31;100.00
19236;BME280;9752;54.270;12.470;2023-02-17T05:14:43;101823.91;;;7.37;100.00
19236;BME280;9752;54.270;12.470;2023-02-17T05:19:46;101817.22;;;7.39;100.00
19236;BME280;9752;54.270;12.470;2023-02-17T05:24:48;101793.59;;;7.34;100.00
19236;BME280;9752;54.270;12.470;2023-02-17T05:29:49;101796.69;;;7.40;100.00
19236;BME280;9752;54.270;12.470;2023-02-17T05:34:53;101808.47;;;7.47;100.00
19236;BME280;9752;54.270;12.470;2023-02-17T05:39:55;101808.00;;;7.51;100.00
19236;BME280;9752;54.270;12.470;2023-02-17T05:44:56;101796.88;;;7.52;100.00
19236;BME280;9752;54.270;12.470;2023-02-17T05:49:59;101798.19;;;7.57;100.00
19236;BME280;9752;54.270;12.470;2023-02-17T05:55:01;101784.63;;;7.60;100.00
19236;BME280;9752;54.270;12.470;2023-02-17T06:00:05;101785.97;;;7.65;100.00
19236;BME280;9752;54.270;12.470;2023-02-17T06:05:14;101768.50;;;7.62;100.00
19236;BME280;9752;54.270;12.470;2023-02-17T06:10:16;101766.34;;;7.67;100.00
19236;BME280;9752;54.270;12.470;2023-02-17T06:15:17;101768.41;;;7.71;100.00
19236;BME280;9752;54.270;12.470;2023-02-17T06:20:21;101755.63;;;7.73;100.00
19236;BME280;9752;54.270;12.470;2023-02-17T06:25:23;101747.25;;;7.75;100.00
19236;BME280;9752;54.270;12.470;2023-02-17T06:30:24;101751.91;;;7.79;100.00
19236;BME280;9752;54.270;12.470;2023-02-17T06:35:27;101747.75;;;7.81;100.00
19236;BME280;9752;54.270;12.470;2023-02-17T06:40:29;101752.31;;;7.84;100.00
19236;BME280;9752;54.270;12.470;2023-02-17T06:45:31;101734.38;;;7.86;100.00
19236;BME280;9752;54.270;12.470;2023-02-17T06:50:34;101725.97;;;7.88;100.00
19236;BME280;9752;54.270;12.470;2023-02-17T06:55:36;101710.09;;;7.94;100.00
19236;BME280;9752;54.270;12.470;2023-02-17T07:00:38;101698.19;;;7.96;100.00
19236;BME280;9752;54.270;12.470;2023-02-17T07:05:41;101700.41;;;8.01;100.00
19236;BME280;9752;54.270;12.470;2023-02-17T07:10:43;101700.03;;;8.07;100.00
19236;BME280;9752;54.270;12.470;2023-02-17T07:15:45;101695.13;;;8.10;100.00
19236;BME280;9752;54.270;12.470;2023-02-17T07:20:48;101689.16;;;8.11;100.00
19236;BME280;9752;54.270;12.470;2023-02-17T07:25:50;101679.09;;;8.14;100.00
19236;BME280;9752;54.270;12.470;2023-02-17T07:30:52;101676.75;;;8.17;100.00
19236;BME280;9752;54.270;12.470;2023-02-17T07:35:55;101669.00;;;8.17;100.00
19236;BME280;9752;54.270;12.470;2023-02-17T07:40:56;101663.34;;;8.21;100.00
19236;BME280;9752;54.270;12.470;2023-02-17T07:46:04;101649.75;;;8.24;100.00
19236;BME280;9752;54.270;12.470;2023-02-17T07:51:09;101641.22;;;8.25;100.00
19236;BME280;9752;54.270;12.470;2023-02-17T07:56:12;101628.41;;;8.27;100.00
19236;BME280;9752;54.270;12.470;2023-02-17T08:01:17;101635.41;;;8.28;100.00
19236;BME280;9752;54.270;12.470;2023-02-17T08:06:21;101613.03;;;8.28;100.00
19236;BME280;9752;54.270;12.470;2023-02-17T08:11:23;101609.03;;;8.32;100.00
19236;BME280;9752;54.270;12.470;2023-02-17T08:16:42;101602.03;;;8.41;100.00
19236;BME280;9752;54.270;12.470;2023-02-17T08:21:45;101606.56;;;8.44;100.00
19236;BME280;9752;54.270;12.470;2023-02-17T08:26:47;101585.75;;;8.52;100.00
19236;BME280;9752;54.270;12.470;2023-02-17T08:31:51;101559.34;;;8.56;100.00
19236;BME280;9752;54.270;12.470;2023-02-17T08:36:54;101565.91;;;8.63;100.00
19236;BME280;9752;54.270;12.470;2023-02-17T08:41:56;101552.56;;;8.69;100.00
19236;BME280;9752;54.270;12.470;2023-02-17T08:46:57;101536.53;;;8.73;100.00
19236;BME280;9752;54.270;12.470;2023-02-17T08:52:01;101537.38;;;8.84;100.00
19236;BME280;9752;54.270;12.470;2023-02-17T08:57:03;101528.16;;;8.87;100.00
19236;BME280;9752;54.270;12.470;2023-02-17T09:02:05;101488.81;;;8.91;100.00
19236;BME280;9752;54.270;12.470;2023-02-17T09:07:10;101492.66;;;8.96;100.00
19236;BME280;9752;54.270;12.470;2023-02-17T09:12:12;101467.81;;;8.98;100.00
19236;BME280;9752;54.270;12.470;2023-02-17T09:17:13;101461.19;;;9.02;100.00
19236;BME280;9752;54.270;12.470;2023-02-17T09:22:16;101447.69;;;9.06;100.00
19236;BME280;9752;54.270;12.470;2023-02-17T09:27:19;101417.44;;;9.05;100.00
19236;BME280;9752;54.270;12.470;2023-02-17T09:32:21;101407.19;;;9.07;100.00
19236;BME280;9752;54.270;12.470;2023-02-17T09:37:24;101377.94;;;9.08;100.00
19236;BME280;9752;54.270;12.470;2023-02-17T09:42:27;101381.78;;;9.13;100.00
19236;BME280;9752;54.270;12.470;2023-02-17T09:47:32;101375.81;;;9.14;100.00
19236;BME280;9752;54.270;12.470;2023-02-17T09:52:41;101349.72;;;9.11;100.00
19236;BME280;9752;54.270;12.470;2023-02-17T09:57:48;101353.66;;;9.17;100.00
19236;BME280;9752;54.270;12.470;2023-02-17T10:02:55;101337.69;;;9.23;100.00
19236;BME280;9752;54.270;12.470;2023-02-17T10:08:05;101319.44;;;9.22;100.00
19236;BME280;9752;54.270;12.470;2023-02-17T10:13:08;101319.91;;;9.28;100.00
19236;BME280;9752;54.270;12.470;2023-02-17T10:18:15;101314.94;;;9.31;100.00
19236;BME280;9752;54.270;12.470;2023-02-17T10:23:20;101294.03;;;9.28;100.00
19236;BME280;9752;54.270;12.470;2023-02-17T10:28:37;101296.94;;;9.32;100.00
19236;BME280;9752;54.270;12.470;2023-02-17T10:33:46;101295.16;;;9.43;100.00
19236;BME280;9752;54.270;12.470;2023-02-17T10:38:51;101280.75;;;9.47;100.00
19236;BME280;9752;54.270;12.470;2023-02-17T10:43:53;101285.47;;;9.52;100.00
19236;BME280;9752;54.270;12.470;2023-02-17T10:48:56;101264.06;;;9.55;100.00
19236;BME280;9752;54.270;12.470;2023-02-17T10:54:03;101244.34;;;9.57;100.00
19236;BME280;9752;54.270;12.470;2023-02-17T10:59:13;101226.88;;;9.66;100.00
19236;BME280;9752;54.270;12.470;2023-02-17T11:04:17;101221.47;;;9.63;100.00
19236;BME280;9752;54.270;12.470;2023-02-17T11:09:21;101214.75;;;9.78;100.00
19236;BME280;9752;54.270;12.470;2023-02-17T11:14:29;101221.88;;;9.69;100.00
19236;BME280;9752;54.270;12.470;2023-02-17T11:19:34;101197.22;;;9.74;100.00
19236;BME280;9752;54.270;12.470;2023-02-17T11:24:37;101186.84;;;9.74;100.00
19236;BME280;9752;54.270;12.470;2023-02-17T11:29:39;101164.75;;;9.80;100.00
19236;BME280;9752;54.270;12.470;2023-02-17T11:34:42;101150.47;;;9.73;100.00
19236;BME280;9752;54.270;12.470;2023-02-17T11:39:47;101141.50;;;9.68;100.00
19236;BME280;9752;54.270;12.470;2023-02-17T11:44:50;101158.53;;;9.64;100.00
19236;BME280;9752;54.270;12.470;2023-02-17T11:49:59;101151.66;;;9.65;100.00
19236;BME280;9752;54.270;12.470;2023-02-17T11:55:14;101148.81;;;9.73;100.00
19236;BME280;9752;54.270;12.470;2023-02-17T12:00:20;101154.66;;;9.71;100.00
19236;BME280;9752;54.270;12.470;2023-02-17T12:05:25;101140.03;;;9.71;100.00
19236;BME280;9752;54.270;12.470;2023-02-17T12:10:44;101134.03;;;9.72;100.00
19236;BME280;9752;54.270;12.470;2023-02-17T12:15:57;101140.44;;;9.77;100.00
19236;BME280;9752;54.270;12.470;2023-02-17T12:21:08;101117.13;;;9.77;100.00
19236;BME280;9752;54.270;12.470;2023-02-17T12:26:22;101145.75;;;9.79;100.00
19236;BME280;9752;54.270;12.470;2023-02-17T12:31:43;101180.13;;;9.90;100.00
19236;BME280;9752;54.270;12.470;2023-02-17T12:36:49;101155.44;;;9.95;100.00
19236;BME280;9752;54.270;12.470;2023-02-17T12:41:57;101139.59;;;9.90;100.00
19236;BME280;9752;54.270;12.470;2023-02-17T12:47:03;101117.31;;;9.81;100.00
19236;BME280;9752;54.270;12.470;2023-02-17T12:52:12;101118.13;;;9.80;100.00
19236;BME280;9752;54.270;12.470;2023-02-17T12:57:20;101129.28;;;9.78;100.00
19236;BME280;9752;54.270;12.470;2023-02-17T13:02:25;101130.88;;;9.76;100.00
19236;BME280;9752;54.270;12.470;2023-02-17T13:07:42;101113.53;;;9.75;100.00
19236;BME280;9752;54.270;12.470;2023-02-17T13:12:58;101103.19;;;9.75;100.00
19236;BME280;9752;54.270;12.470;2023-02-17T13:18:01;101106.56;;;9.74;100.00
19236;BME280;9752;54.270;12.470;2023-02-17T13:23:06;101097.78;;;9.72;100.00
19236;BME280;9752;54.270;12.470;2023-02-17T13:28:33;101092.00;;;9.76;100.00
19236;BME280;9752;54.270;12.470;2023-02-17T13:33:40;101079.75;;;9.74;100.00
19236;BME280;9752;54.270;12.470;2023-02-17T13:38:52;101081.16;;;9.82;100.00
19236;BME280;9752;54.270;12.470;2023-02-17T13:43:57;101078.47;;;9.81;100.00
19236;BME280;9752;54.270;12.470;2023-02-17T13:49:00;101082.75;;;9.80;100.00
19236;BME280;9752;54.270;12.470;2023-02-17T13:54:05;101057.59;;;9.91;100.00
19236;BME280;9752;54.270;12.470;2023-02-17T13:59:12;101039.72;;;9.82;100.00
19236;BME280;9752;54.270;12.470;2023-02-17T14:04:22;101096.84;;;9.58;100.00
19236;BME280;9752;54.270;12.470;2023-02-17T14:09:25;100986.44;;;9.47;100.00
19236;BME280;9752;54.270;12.470;2023-02-17T14:14:32;100937.38;;;9.49;100.00
19236;BME280;9752;54.270;12.470;2023-02-17T14:19:42;100941.13;;;9.41;100.00
19236;BME280;9752;54.270;12.470;2023-02-17T14:24:44;100947.69;;;9.35;100.00
19236;BME280;9752;54.270;12.470;2023-02-17T14:29:48;100922.31;;;9.43;100.00
19236;BME280;9752;54.270;12.470;2023-02-17T14:34:50;100921.47;;;9.31;100.00
19236;BME280;9752;54.270;12.470;2023-02-17T14:39:52;100952.28;;;9.40;100.00
19236;BME280;9752;54.270;12.470;2023-02-17T14:44:55;100931.16;;;9.33;100.00
19236;BME280;9752;54.270;12.470;2023-02-17T14:49:57;100904.84;;;9.27;100.00
19236;BME280;9752;54.270;12.470;2023-02-17T14:54:59;100886.03;;;9.16;100.00
19236;BME280;9752;54.270;12.470;2023-02-17T15:00:02;100913.91;;;9.21;100.00
19236;BME280;9752;54.270;12.470;2023-02-17T15:05:05;100915.97;;;9.13;100.00
19236;BME280;9752;54.270;12.470;2023-02-17T15:10:13;100896.13;;;9.00;100.00
19236;BME280;9752;54.270;12.470;2023-02-17T15:15:20;100891.19;;;9.03;100.00
19236;BME280;9752;54.270;12.470;2023-02-17T15:20:21;100857.22;;;8.98;100.00
19236;BME280;9752;54.270;12.470;2023-02-17T15:25:23;100840.06;;;8.87;100.00
19236;BME280;9752;54.270;12.470;2023-02-17T15:30:26;100821.56;;;8.81;100.00
19236;BME280;9752;54.270;12.470;2023-02-17T15:35:28;100831.38;;;8.73;100.00
19236;BME280;9752;54.270;12.470;2023-02-17T15:40:30;100807.47;;;8.64;100.00
19236;BME280;9752;54.270;12.470;2023-02-17T15:45:33;100760.06;;;8.64;100.00
19236;BME280;9752;54.270;12.470;2023-02-17T15:50:35;100738.41;;;8.50;100.00
19236;BME280;9752;54.270;12.470;2023-02-17T15:55:37;100703.75;;;8.46;100.00
19236;BME280;9752;54.270;12.470;2023-02-17T16:00:41;100685.31;;;8.42;100.00
19236;BME280;9752;54.270;12.470;2023-02-17T16:05:45;100659.19;;;8.25;100.00
19236;BME280;9752;54.270;12.470;2023-02-17T16:10:47;100644.59;;;8.12;100.00
19236;BME280;9752;54.270;12.470;2023-02-17T16:15:53;100619.41;;;7.96;100.00
19236;BME280;9752;54.270;12.470;2023-02-17T16:20:57;100594.50;;;7.97;100.00
19236;BME280;9752;54.270;12.470;2023-02-17T16:26:00;100606.50;;;7.71;100.00
19236;BME280;9752;54.270;12.470;2023-02-17T16:31:03;100627.53;;;7.64;100.00
19236;BME280;9752;54.270;12.470;2023-02-17T16:36:11;100588.19;;;7.80;100.00
19236;BME280;9752;54.270;12.470;2023-02-17T16:41:15;100603.97;;;7.85;100.00
19236;BME280;9752;54.270;12.470;2023-02-17T16:46:22;100595.16;;;7.94;100.00
19236;BME280;9752;54.270;12.470;2023-02-17T16:51:26;100572.00;;;7.82;100.00
19236;BME280;9752;54.270;12.470;2023-02-17T16:56:37;100583.88;;;7.67;100.00
19236;BME280;9752;54.270;12.470;2023-02-17T17:01:41;100593.59;;;7.71;100.00
19236;BME280;9752;54.270;12.470;2023-02-17T17:06:45;100585.34;;;7.63;100.00
19236;BME280;9752;54.270;12.470;2023-02-17T17:11:47;100579.44;;;7.53;100.00
19236;BME280;9752;54.270;12.470;2023-02-17T17:16:52;100597.19;;;7.48;100.00
19236;BME280;9752;54.270;12.470;2023-02-17T17:21:55;100625.69;;;7.50;100.00
19236;BME280;9752;54.270;12.470;2023-02-17T17:26:57;100590.50;;;7.38;100.00
19236;BME280;9752;54.270;12.470;2023-02-17T17:32:00;100576.91;;;7.41;100.00
19236;BME280;9752;54.270;12.470;2023-02-17T17:37:02;100597.03;;;7.33;100.00
19236;BME280;9752;54.270;12.470;2023-02-17T17:42:04;100620.47;;;7.36;100.00
19236;BME280;9752;54.270;12.470;2023-02-17T17:47:09;100619.66;;;7.37;100.00
19236;BME280;9752;54.270;12.470;2023-02-17T17:52:14;100612.25;;;7.42;100.00
19236;BME280;9752;54.270;12.470;2023-02-17T17:57:15;100626.00;;;7.17;100.00
19236;BME280;9752;54.270;12.470;2023-02-17T18:02:19;100668.41;;;6.97;100.00
19236;BME280;9752;54.270;12.470;2023-02-17T18:07:20;100654.16;;;7.14;100.00
19236;BME280;9752;54.270;12.470;2023-02-17T18:12:22;100673.78;;;7.12;100.00
19236;BME280;9752;54.270;12.470;2023-02-17T18:17:26;100672.22;;;7.02;100.00
19236;BME280;9752;54.270;12.470;2023-02-17T18:22:28;100697.31;;;7.17;100.00
19236;BME280;9752;54.270;12.470;2023-02-17T18:27:36;100696.75;;;7.09;100.00
19236;BME280;9752;54.270;12.470;2023-02-17T18:32:39;100674.25;;;6.95;100.00
19236;BME280;9752;54.270;12.470;2023-02-17T18:37:41;100679.88;;;6.89;100.00
19236;BME280;9752;54.270;12.470;2023-02-17T18:42:44;100697.91;;;6.89;100.00
19236;BME280;9752;54.270;12.470;2023-02-17T18:47:48;100711.56;;;6.88;100.00
19236;BME280;9752;54.270;12.470;2023-02-17T18:52:51;100722.56;;;6.97;100.00
19236;BME280;9752;54.270;12.470;2023-02-17T18:57:52;100711.00;;;6.80;100.00
19236;BME280;9752;54.270;12.470;2023-02-17T19:02:57;100737.78;;;6.71;100.00
19236;BME280;9752;54.270;12.470;2023-02-17T19:07:59;100765.81;;;6.66;100.00
19236;BME280;9752;54.270;12.470;2023-02-17T19:13:00;100752.00;;;6.65;100.00
19236;BME280;9752;54.270;12.470;2023-02-17T19:18:04;100749.06;;;6.49;100.00
19236;BME280;9752;54.270;12.470;2023-02-17T19:23:06;100747.63;;;6.53;100.00
19236;BME280;9752;54.270;12.470;2023-02-17T19:28:07;100757.00;;;6.40;100.00
19236;BME280;9752;54.270;12.470;2023-02-17T19:33:10;100744.78;;;6.38;100.00
19236;BME280;9752;54.270;12.470;2023-02-17T19:38:12;100741.41;;;6.39;100.00
19236;BME280;9752;54.270;12.470;2023-02-17T19:43:14;100740.66;;;6.40;100.00
19236;BME280;9752;54.270;12.470;2023-02-17T19:48:17;100745.25;;;6.44;100.00
19236;BME280;9752;54.270;12.470;2023-02-17T19:53:24;100754.56;;;6.54;100.00
19236;BME280;9752;54.270;12.470;2023-02-17T19:58:26;100750.16;;;6.41;100.00
19236;BME280;9752;54.270;12.470;2023-02-17T20:03:29;100762.72;;;6.48;100.00
19236;BME280;9752;54.270;12.470;2023-02-17T20:08:31;100748.38;;;6.40;100.00
19236;BME280;9752;54.270;12.470;2023-02-17T20:13:33;100769.00;;;6.40;100.00
19236;BME280;9752;54.270;12.470;2023-02-17T20:18:37;100788.28;;;6.45;100.00
19236;BME280;9752;54.270;12.470;2023-02-17T20:23:39;100756.28;;;6.31;100.00
19236;BME280;9752;54.270;12.470;2023-02-17T20:28:41;100779.28;;;6.40;100.00
19236;BME280;9752;54.270;12.470;2023-02-17T20:33:44;100793.38;;;6.33;100.00
19236;BME280;9752;54.270;12.470;2023-02-17T20:38:47;100807.94;;;6.33;100.00
19236;BME280;9752;54.270;12.470;2023-02-17T20:43:50;100791.13;;;6.26;100.00
19236;BME280;9752;54.270;12.470;2023-02-17T20:48:54;100821.53;;;6.20;100.00
19236;BME280;9752;54.270;12.470;2023-02-17T20:53:56;100843.28;;;6.23;100.00
19236;BME280;9752;54.270;12.470;2023-02-17T20:58:57;100833.88;;;6.24;100.00
19236;BME280;9752;54.270;12.470;2023-02-17T21:04:01;100846.44;;;6.31;100.00
19236;BME280;9752;54.270;12.470;2023-02-17T21:09:05;100848.72;;;6.38;100.00
19236;BME280;9752;54.270;12.470;2023-02-17T21:14:08;100831.00;;;6.31;100.00
19236;BME280;9752;54.270;12.470;2023-02-17T21:19:11;100862.09;;;6.22;100.00
19236;BME280;9752;54.270;12.470;2023-02-17T21:24:13;100867.00;;;6.19;100.00
19236;BME280;9752;54.270;12.470;2023-02-17T21:29:15;100884.44;;;6.12;100.00
19236;BME280;9752;54.270;12.470;2023-02-17T21:34:18;100917.09;;;6.13;100.00
19236;BME280;9752;54.270;12.470;2023-02-17T21:39:20;100905.19;;;6.03;100.00
19236;BME280;9752;54.270;12.470;2023-02-17T21:44:21;100893.88;;;6.01;100.00
19236;BME280;9752;54.270;12.470;2023-02-17T21:49:42;100903.47;;;6.14;100.00
19236;BME280;9752;54.270;12.470;2023-02-17T21:54:44;100943.78;;;6.13;100.00
19236;BME280;9752;54.270;12.470;2023-02-17T21:59:46;100929.28;;;6.03;100.00
19236;BME280;9752;54.270;12.470;2023-02-17T22:04:52;100970.09;;;5.99;100.00
19236;BME280;9752;54.270;12.470;2023-02-17T22:09:54;100951.66;;;6.04;100.00
19236;BME280;9752;54.270;12.470;2023-02-17T22:14:56;100955.91;;;5.94;100.00
19236;BME280;9752;54.270;12.470;2023-02-17T22:19:59;100990.69;;;5.99;100.00
19236;BME280;9752;54.270;12.470;2023-02-17T22:25:01;100976.78;;;5.97;100.00
19236;BME280;9752;54.270;12.470;2023-02-17T22:30:03;100991.97;;;6.04;100.00
19236;BME280;9752;54.270;12.470;2023-02-17T22:35:07;101015.81;;;6.01;100.00
19236;BME280;9752;54.270;12.470;2023-02-17T22:40:09;101001.59;;;6.06;100.00
19236;BME280;9752;54.270;12.470;2023-02-17T22:45:11;101015.91;;;5.93;100.00
19236;BME280;9752;54.270;12.470;2023-02-17T22:50:15;101007.28;;;6.02;100.00
19236;BME280;9752;54.270;12.470;2023-02-17T22:55:17;101026.19;;;5.93;100.00
19236;BME280;9752;54.270;12.470;2023-02-17T23:00:19;101008.19;;;5.93;100.00
19236;BME280;9752;54.270;12.470;2023-02-17T23:05:22;101039.47;;;5.87;100.00
19236;BME280;9752;54.270;12.470;2023-02-17T23:10:24;101046.28;;;5.86;100.00
19236;BME280;9752;54.270;12.470;2023-02-17T23:15:25;101016.44;;;5.99;100.00
19236;BME280;9752;54.270;12.470;2023-02-17T23:20:43;101060.19;;;5.89;100.00
19236;BME280;9752;54.270;12.470;2023-02-17T23:25:48;101090.59;;;5.82;100.00
19236;BME280;9752;54.270;12.470;2023-02-17T23:30:50;101086.19;;;5.71;100.00
19236;BME280;9752;54.270;12.470;2023-02-17T23:35:53;101090.56;;;5.72;100.00
19236;BME280;9752;54.270;12.470;2023-02-17T23:40:55;101104.69;;;5.67;100.00
19236;BME280;9752;54.270;12.470;2023-02-17T23:45:57;101121.94;;;5.47;100.00
19236;BME280;9752;54.270;12.470;2023-02-17T23:51:02;101103.16;;;5.48;100.00
19236;BME280;9752;54.270;12.470;2023-02-17T23:56:07;101130.53;;;5.48;100.00
